createdAt,value
2023-05-10T00:00:47.459Z,95737.89
2023-05-10T00:03:15.545Z,95735.17
2023-05-10T00:05:43.654Z,95737.03
2023-05-10T00:08:11.621Z,95736.16
2023-05-10T00:10:39.622Z,95734.91
2023-05-10T00:13:08.092Z,95735.68
2023-05-10T00:15:36.249Z,95733.26
2023-05-10T00:18:04.352Z,95729.34
2023-05-10T00:20:32.782Z,95729.55
2023-05-10T00:23:00.852Z,95732.55
2023-05-10T00:25:28.916Z,95731.86
2023-05-10T00:27:58.299Z,95728.52
2023-05-10T00:30:26.425Z,95728.73
2023-05-10T00:32:54.827Z,95728.20
2023-05-10T00:35:23.138Z,95727.62
2023-05-10T00:37:51.187Z,95729.75
2023-05-10T00:40:19.412Z,95727.52
2023-05-10T00:42:50.342Z,95722.33
2023-05-10T00:45:18.528Z,95720.65
2023-05-10T00:47:46.670Z,95720.25
2023-05-10T00:50:16.741Z,95729.52
2023-05-10T00:52:45.245Z,95731.21
2023-05-10T00:55:14.714Z,95728.49
2023-05-10T00:57:43.652Z,95724.83
2023-05-10T01:00:13.541Z,95727.35
2023-05-10T01:02:42.668Z,95721.59
2023-05-10T01:05:10.985Z,95718.05
2023-05-10T01:07:39.689Z,95719.34
2023-05-10T01:10:09.381Z,95719.20
2023-05-10T01:12:40.887Z,95718.83
2023-05-10T01:15:11.954Z,95718.88
2023-05-10T01:17:41.737Z,95714.89
2023-05-10T01:20:11.585Z,95714.69
2023-05-10T01:22:39.523Z,95711.46
2023-05-10T01:25:26.514Z,95709.01
2023-05-10T01:28:11.000Z,95706.98
2023-05-10T01:31:03.809Z,95708.70
2023-05-10T01:33:36.986Z,95707.81
2023-05-10T01:36:14.941Z,95708.72
2023-05-10T01:38:51.730Z,95708.39
2023-05-10T01:41:30.229Z,95707.09
2023-05-10T01:44:01.383Z,95711.55
2023-05-10T01:46:59.283Z,95713.86
2023-05-10T01:49:35.945Z,95714.58
2023-05-10T01:52:15.250Z,95711.55
2023-05-10T01:54:50.294Z,95709.91
2023-05-10T01:57:21.671Z,95704.47
2023-05-10T01:59:52.412Z,95696.20
2023-05-10T02:02:22.314Z,95698.36
2023-05-10T02:04:53.284Z,95693.27
2023-05-10T02:07:22.952Z,95694.02
2023-05-10T02:09:52.268Z,95691.82
2023-05-10T02:12:22.346Z,95692.09
2023-05-10T02:14:53.977Z,95692.96
2023-05-10T02:17:23.489Z,95688.46
2023-05-10T02:19:54.366Z,95688.41
2023-05-10T02:22:23.469Z,95689.84
2023-05-10T02:24:52.127Z,95691.38
2023-05-10T02:27:21.704Z,95692.67
2023-05-10T02:29:51.805Z,95690.02
2023-05-10T02:32:20.451Z,95692.83
2023-05-10T02:34:52.986Z,95696.19
2023-05-10T02:37:23.126Z,95694.71
2023-05-10T02:39:53.332Z,95697.16
2023-05-10T02:42:26.920Z,95695.16
2023-05-10T02:45:01.192Z,95695.89
2023-05-10T02:47:30.260Z,95698.61
2023-05-10T02:49:58.492Z,95703.36
2023-05-10T02:52:29.405Z,95705.17
2023-05-10T02:55:02.150Z,95705.38
2023-05-10T02:57:36.686Z,95707.19
2023-05-10T03:00:06.014Z,95708.75
2023-05-10T03:02:34.520Z,95706.62
2023-05-10T03:05:03.846Z,95707.91
2023-05-10T03:07:32.322Z,95706.96
2023-05-10T03:10:01.384Z,95704.71
2023-05-10T03:12:41.615Z,95698.73
2023-05-10T03:15:28.044Z,95701.87
2023-05-10T03:18:10.599Z,95705.64
2023-05-10T03:20:49.923Z,95704.27
2023-05-10T03:23:42.368Z,95700.00
2023-05-10T03:26:16.938Z,95697.69
2023-05-10T03:28:46.591Z,95695.40
2023-05-10T03:31:15.285Z,95692.05
2023-05-10T03:33:51.415Z,95690.00
2023-05-10T03:36:23.913Z,95689.67
2023-05-10T03:38:52.249Z,95691.75
2023-05-10T03:41:21.705Z,95691.89
2023-05-10T03:43:49.919Z,95693.21
2023-05-10T03:46:18.263Z,95694.02
2023-05-10T03:48:46.920Z,95690.39
2023-05-10T03:51:15.216Z,95695.09
2023-05-10T03:53:43.609Z,95690.32
2023-05-10T03:56:12.080Z,95687.29
2023-05-10T03:58:40.407Z,95688.61
2023-05-10T04:01:08.752Z,95691.73
2023-05-10T04:03:37.908Z,95688.34
2023-05-10T04:06:09.302Z,95690.48
2023-05-10T04:08:37.349Z,95689.36
2023-05-10T04:11:10.351Z,95687.68
2023-05-10T04:13:39.242Z,95688.72
2023-05-10T04:16:07.855Z,95688.70
2023-05-10T04:18:36.465Z,95687.27
2023-05-10T04:21:04.885Z,95688.91
2023-05-10T04:23:33.236Z,95684.85
2023-05-10T04:26:02.532Z,95690.95
2023-05-10T04:28:30.614Z,95686.77
2023-05-10T04:31:10.209Z,95690.22
2023-05-10T04:33:38.232Z,95691.60
2023-05-10T04:36:06.762Z,95691.20
2023-05-10T04:38:34.710Z,95687.61
2023-05-10T04:41:08.173Z,95682.11
2023-05-10T04:43:37.397Z,95682.96
2023-05-10T04:46:06.222Z,95679.73
2023-05-10T04:48:34.733Z,95682.89
2023-05-10T04:51:04.610Z,95680.61
2023-05-10T04:53:32.734Z,95678.02
2023-05-10T04:56:00.794Z,95678.15
2023-05-10T04:58:28.905Z,95674.73
2023-05-10T05:00:57.349Z,95677.73
2023-05-10T05:03:25.712Z,95675.92
2023-05-10T05:05:53.966Z,95671.70
2023-05-10T05:08:22.059Z,95673.86
2023-05-10T05:10:51.266Z,95669.34
2023-05-10T05:13:19.865Z,95669.96
2023-05-10T05:15:48.071Z,95666.36
2023-05-10T05:18:16.194Z,95663.89
2023-05-10T05:20:44.302Z,95658.53
2023-05-10T05:23:12.723Z,95663.33
2023-05-10T05:25:40.769Z,95665.27
2023-05-10T05:28:08.858Z,95659.96
2023-05-10T05:30:36.917Z,95662.25
2023-05-10T05:33:05.181Z,95659.25
2023-05-10T05:35:33.453Z,95659.31
2023-05-10T05:38:02.064Z,95660.88
2023-05-10T05:40:30.323Z,95660.49
2023-05-10T05:42:58.400Z,95661.30
2023-05-10T05:45:26.466Z,95661.75
2023-05-10T05:47:54.477Z,95660.97
2023-05-10T05:50:22.563Z,95656.13
2023-05-10T05:52:50.968Z,95657.65
2023-05-10T05:55:19.401Z,95660.32
2023-05-10T05:57:48.182Z,95657.08
2023-05-10T06:00:17.219Z,95658.13
2023-05-10T06:02:46.772Z,95660.95
2023-05-10T06:05:16.892Z,95658.83
2023-05-10T06:07:45.580Z,95660.51
2023-05-10T06:10:14.077Z,95658.14
2023-05-10T06:12:42.750Z,95653.27
2023-05-10T06:15:11.695Z,95651.80
2023-05-10T06:17:40.046Z,95651.38
2023-05-10T06:20:08.952Z,95651.18
2023-05-10T06:22:37.291Z,95652.02
2023-05-10T06:25:06.407Z,95649.27
2023-05-10T06:27:34.688Z,95646.46
2023-05-10T06:30:12.287Z,95645.14
2023-05-10T06:32:41.379Z,95646.86
2023-05-10T06:35:10.344Z,95642.20
2023-05-10T06:37:38.278Z,95639.09
2023-05-10T06:40:08.505Z,95635.80
2023-05-10T06:42:36.607Z,95638.95
2023-05-10T06:45:05.230Z,95638.18
2023-05-10T06:47:33.338Z,95638.45
2023-05-10T06:50:01.892Z,95635.12
2023-05-10T06:52:29.854Z,95638.51
2023-05-10T06:54:58.735Z,95636.21
2023-05-10T06:57:31.828Z,95639.55
2023-05-10T07:00:00.517Z,95633.05
2023-05-10T07:02:29.152Z,95637.55
2023-05-10T07:04:59.471Z,95634.54
2023-05-10T07:07:29.942Z,95635.69
2023-05-10T07:09:58.804Z,95635.70
2023-05-10T07:12:27.224Z,95631.27
2023-05-10T07:14:55.687Z,95627.04
2023-05-10T07:17:23.883Z,95627.16
2023-05-10T07:19:52.255Z,95627.64
2023-05-10T07:22:20.460Z,95631.02
2023-05-10T07:24:48.584Z,95628.20
2023-05-10T07:27:17.093Z,95631.55
2023-05-10T07:29:45.445Z,95627.94
2023-05-10T07:32:13.641Z,95629.80
2023-05-10T07:34:42.304Z,95632.71
2023-05-10T07:37:10.422Z,95630.73
2023-05-10T07:39:39.027Z,95627.89
2023-05-10T07:42:07.372Z,95628.10
2023-05-10T07:44:35.557Z,95625.63
2023-05-10T07:47:03.836Z,95620.46
2023-05-10T07:49:32.060Z,95626.34
2023-05-10T07:52:00.456Z,95623.97
2023-05-10T07:54:28.976Z,95619.91
2023-05-10T07:56:57.354Z,95618.84
2023-05-10T07:59:25.545Z,95617.30
2023-05-10T08:01:53.861Z,95617.59
2023-05-10T08:04:22.402Z,95619.04
2023-05-10T08:06:50.996Z,95616.84
2023-05-10T08:09:19.171Z,95620.02
2023-05-10T08:11:47.444Z,95618.42
2023-05-10T08:14:15.460Z,95618.48
2023-05-10T08:16:43.508Z,95613.38
2023-05-10T08:19:11.749Z,95616.54
2023-05-10T08:21:41.585Z,95615.09
2023-05-10T08:24:09.631Z,95614.69
2023-05-10T08:26:37.934Z,95614.16
2023-05-10T08:29:06.714Z,95615.23
2023-05-10T08:31:35.005Z,95613.73
2023-05-10T08:34:03.513Z,95612.84
2023-05-10T08:36:33.146Z,95616.20
2023-05-10T08:39:01.411Z,95613.77
2023-05-10T08:41:34.457Z,95613.35
2023-05-10T08:44:05.651Z,95611.02
2023-05-10T08:46:40.724Z,95610.61
2023-05-10T08:49:10.414Z,95607.40
2023-05-10T08:51:45.172Z,95602.75
2023-05-10T08:54:14.330Z,95605.74
2023-05-10T08:56:42.936Z,95607.99
2023-05-10T08:59:12.538Z,95603.42
2023-05-10T09:01:43.594Z,95601.64
2023-05-10T09:04:13.311Z,95603.16
2023-05-10T09:06:42.547Z,95597.17
2023-05-10T09:09:11.310Z,95596.51
2023-05-10T09:11:39.375Z,95599.80
2023-05-10T09:14:08.086Z,95591.64
2023-05-10T09:16:36.493Z,95592.70
2023-05-10T09:19:07.720Z,95590.86
2023-05-10T09:21:41.894Z,95584.83
2023-05-10T09:24:10.400Z,95586.95
2023-05-10T09:26:51.243Z,95582.21
2023-05-10T09:29:19.475Z,95582.02
2023-05-10T09:31:56.458Z,95578.00
2023-05-10T09:34:33.331Z,95573.83
2023-05-10T09:37:03.830Z,95565.86
2023-05-10T09:39:36.827Z,95563.55
2023-05-10T09:42:07.449Z,95567.19
2023-05-10T09:44:36.427Z,95563.52
2023-05-10T09:47:05.328Z,95560.09
2023-05-10T09:49:34.370Z,95561.80
2023-05-10T09:52:07.641Z,95559.71
2023-05-10T09:54:37.208Z,95557.80
2023-05-10T09:57:06.236Z,95557.36
2023-05-10T09:59:36.455Z,95553.23
2023-05-10T10:02:04.752Z,95552.39
2023-05-10T10:04:33.859Z,95550.98
2023-05-10T10:07:06.391Z,95551.40
2023-05-10T10:09:35.997Z,95545.55
2023-05-10T10:12:05.783Z,95547.62
2023-05-10T10:14:35.644Z,95542.67
2023-05-10T10:17:08.137Z,95539.54
2023-05-10T10:19:38.225Z,95535.83
2023-05-10T10:22:07.363Z,95537.80
2023-05-10T10:24:35.474Z,95535.43
2023-05-10T10:27:24.895Z,95540.38
2023-05-10T10:30:04.310Z,95537.16
2023-05-10T10:32:53.975Z,95534.05
2023-05-10T10:35:23.179Z,95531.23
2023-05-10T10:37:52.165Z,95530.27
2023-05-10T10:40:35.289Z,95531.05
2023-05-10T10:43:28.206Z,95523.17
2023-05-10T10:46:18.146Z,95529.94
2023-05-10T10:48:52.778Z,95523.77
2023-05-10T10:51:21.280Z,95522.58
2023-05-10T10:53:49.733Z,95511.09
2023-05-10T10:56:24.841Z,95509.17
2023-05-10T10:58:54.665Z,95507.25
2023-05-10T11:01:23.044Z,95508.71
2023-05-10T11:04:06.719Z,95510.17
2023-05-10T11:06:37.312Z,95507.15
2023-05-10T11:09:10.150Z,95502.86
2023-05-10T11:11:52.056Z,95508.44
2023-05-10T11:14:23.632Z,95498.75
2023-05-10T11:16:52.288Z,95501.65
2023-05-10T11:19:21.257Z,95499.22
2023-05-10T11:21:52.888Z,95494.64
2023-05-10T11:24:24.177Z,95492.05
2023-05-10T11:26:52.957Z,95493.06
2023-05-10T11:29:21.395Z,95491.83
2023-05-10T11:31:50.705Z,95494.60
2023-05-10T11:34:31.520Z,95493.80
2023-05-10T11:37:01.793Z,95484.92
2023-05-10T11:39:32.017Z,95489.70
2023-05-10T11:42:01.350Z,95488.85
2023-05-10T11:44:35.937Z,95485.81
2023-05-10T11:47:04.401Z,95482.61
2023-05-10T11:49:33.105Z,95479.39
2023-05-10T11:52:08.822Z,95479.45
2023-05-10T11:54:37.017Z,95479.42
2023-05-10T11:57:05.614Z,95482.31
2023-05-10T11:59:33.876Z,95482.58
2023-05-10T12:02:02.221Z,95478.27
2023-05-10T12:04:31.317Z,95476.18
2023-05-10T12:06:59.923Z,95480.79
2023-05-10T12:11:59.256Z,95478.66
2023-05-10T12:14:27.543Z,95476.33
2023-05-10T12:16:58.308Z,95476.91
2023-05-10T12:19:26.444Z,95479.02
2023-05-10T12:21:54.943Z,95474.11
2023-05-10T12:24:23.225Z,95476.17
2023-05-10T12:26:51.508Z,95471.83
2023-05-10T12:29:20.299Z,95474.97
2023-05-10T12:31:58.566Z,95475.03
2023-05-10T12:34:34.786Z,95474.18
2023-05-10T12:37:04.147Z,95471.00
2023-05-10T12:39:46.584Z,95472.20
2023-05-10T12:42:15.125Z,95469.27
2023-05-10T12:44:43.383Z,95464.10
2023-05-10T12:47:12.008Z,95461.48
2023-05-10T12:49:40.327Z,95463.63
2023-05-10T12:52:08.639Z,95461.49
2023-05-10T12:54:37.029Z,95459.85
2023-05-10T12:57:05.469Z,95461.82
2023-05-10T12:59:35.208Z,95456.65
2023-05-10T13:02:04.218Z,95455.36
2023-05-10T13:04:32.480Z,95450.40
2023-05-10T13:07:00.613Z,95448.24
2023-05-10T13:09:31.422Z,95442.70
2023-05-10T13:11:59.660Z,95442.48
2023-05-10T13:14:28.039Z,95437.73
2023-05-10T13:16:56.347Z,95437.88
2023-05-10T13:19:24.503Z,95437.58
2023-05-10T13:21:52.653Z,95433.70
2023-05-10T13:24:21.024Z,95436.71
2023-05-10T13:26:49.711Z,95430.96
2023-05-10T13:29:19.213Z,95429.27
2023-05-10T13:31:47.588Z,95426.31
2023-05-10T13:34:15.859Z,95425.11
2023-05-10T13:36:43.997Z,95420.56
2023-05-10T13:39:12.058Z,95421.44
2023-05-10T13:41:40.692Z,95422.44
2023-05-10T13:44:08.778Z,95420.41
2023-05-10T13:46:36.817Z,95417.83
2023-05-10T13:49:05.156Z,95419.34
2023-05-10T13:51:34.966Z,95414.00
2023-05-10T13:54:04.365Z,95416.62
2023-05-10T13:56:32.500Z,95414.89
2023-05-10T13:59:01.003Z,95415.35
2023-05-10T14:01:29.241Z,95413.50
2023-05-10T14:03:57.400Z,95409.48
2023-05-10T14:06:25.507Z,95409.85
2023-05-10T14:08:54.926Z,95408.61
2023-05-10T14:11:24.859Z,95408.65
2023-05-10T14:13:53.106Z,95406.63
2023-05-10T14:16:21.495Z,95404.67
2023-05-10T14:18:49.931Z,95394.41
2023-05-10T14:21:18.157Z,95400.92
2023-05-10T14:23:46.363Z,95396.07
2023-05-10T14:26:14.618Z,95392.18
2023-05-10T14:28:42.853Z,95393.96
2023-05-10T14:31:11.107Z,95392.98
2023-05-10T14:33:39.127Z,95389.20
2023-05-10T14:36:08.053Z,95389.55
2023-05-10T14:38:36.217Z,95392.86
2023-05-10T14:41:04.564Z,95390.70
2023-05-10T14:43:32.757Z,95391.77
2023-05-10T14:46:01.065Z,95392.19
2023-05-10T14:48:29.219Z,95393.89
2023-05-10T14:50:57.295Z,95389.45
2023-05-10T14:53:25.704Z,95389.38
2023-05-10T14:55:54.025Z,95385.59
2023-05-10T14:58:22.385Z,95386.89
2023-05-10T15:00:50.661Z,95385.31
2023-05-10T15:03:19.814Z,95382.70
2023-05-10T15:05:48.383Z,95381.20
2023-05-10T15:08:16.419Z,95378.52
2023-05-10T15:10:44.322Z,95380.35
2023-05-10T15:13:12.322Z,95376.55
2023-05-10T15:15:40.745Z,95379.13
2023-05-10T15:18:10.704Z,95383.17
2023-05-10T15:20:38.962Z,95380.78
2023-05-10T15:23:06.983Z,95378.13
2023-05-10T15:25:38.684Z,95378.56
2023-05-10T15:28:06.746Z,95378.98
2023-05-10T15:30:35.016Z,95379.55
2023-05-10T15:33:03.449Z,95374.47
2023-05-10T15:35:31.649Z,95372.49
2023-05-10T15:37:59.726Z,95368.02
2023-05-10T15:40:27.805Z,95363.29
2023-05-10T15:42:56.108Z,95365.42
2023-05-10T15:45:24.369Z,95366.02
2023-05-10T15:47:52.563Z,95368.29
2023-05-10T15:50:21.071Z,95365.38
2023-05-10T15:52:49.700Z,95368.60
2023-05-10T15:55:18.155Z,95368.42
2023-05-10T15:57:47.060Z,95367.35
2023-05-10T16:00:15.910Z,95369.40
2023-05-10T16:02:44.123Z,95365.77
2023-05-10T16:05:12.514Z,95368.90
2023-05-10T16:07:42.060Z,95368.62
2023-05-10T16:10:11.370Z,95365.30
2023-05-10T16:12:40.580Z,95368.47
2023-05-10T16:15:09.300Z,95367.98
2023-05-10T16:17:37.936Z,95368.73
2023-05-10T16:20:06.607Z,95369.58
2023-05-10T16:22:36.534Z,95366.63
2023-05-10T16:25:05.379Z,95362.43
2023-05-10T16:27:33.717Z,95360.17
2023-05-10T16:30:02.149Z,95362.05
2023-05-10T16:32:30.375Z,95369.11
2023-05-10T16:34:59.216Z,95366.42
2023-05-10T16:37:28.223Z,95372.02
2023-05-10T16:39:56.691Z,95367.23
2023-05-10T16:42:26.162Z,95372.70
2023-05-10T16:44:55.053Z,95375.20
2023-05-10T16:47:23.358Z,95380.09
2023-05-10T16:49:51.409Z,95379.79
2023-05-10T16:52:19.507Z,95382.39
2023-05-10T16:54:47.648Z,95387.05
2023-05-10T16:57:16.219Z,95384.87
2023-05-10T16:59:44.165Z,95393.39
2023-05-10T17:02:12.548Z,95389.30
2023-05-10T17:04:41.072Z,95389.45
2023-05-10T17:07:09.069Z,95388.52
2023-05-10T17:09:37.118Z,95394.27
2023-05-10T17:12:05.851Z,95394.45
2023-05-10T17:14:34.249Z,95403.15
2023-05-10T17:17:02.506Z,95401.70
2023-05-10T17:19:31.237Z,95401.42
2023-05-10T17:21:59.450Z,95402.64
2023-05-10T17:24:29.869Z,95403.32
2023-05-10T17:26:57.906Z,95404.00
2023-05-10T17:29:27.182Z,95402.82
2023-05-10T17:31:55.727Z,95406.63
2023-05-10T17:34:23.872Z,95409.52
2023-05-10T17:36:52.251Z,95411.27
2023-05-10T17:39:20.516Z,95412.42
2023-05-10T17:41:48.627Z,95414.52
2023-05-10T17:44:16.910Z,95417.88
2023-05-10T17:46:44.914Z,95419.16
2023-05-10T17:49:13.129Z,95421.80
2023-05-10T17:51:44.132Z,95423.96
2023-05-10T17:54:12.218Z,95425.06
2023-05-10T17:56:40.942Z,95424.77
2023-05-10T17:59:09.117Z,95428.13
2023-05-10T18:01:37.111Z,95427.67
2023-05-10T18:04:06.203Z,95433.23
2023-05-10T18:06:38.384Z,95433.79
2023-05-10T18:09:07.444Z,95437.08
2023-05-10T18:11:36.826Z,95442.97
2023-05-10T18:14:05.100Z,95444.75
2023-05-10T18:16:33.544Z,95447.98
2023-05-10T18:19:01.918Z,95457.44
2023-05-10T18:21:30.084Z,95461.02
2023-05-10T18:23:58.246Z,95462.20
2023-05-10T18:26:26.976Z,95463.52
2023-05-10T18:28:55.360Z,95467.19
2023-05-10T18:31:23.960Z,95467.63
2023-05-10T18:33:52.487Z,95472.90
2023-05-10T18:36:23.222Z,95476.02
2023-05-10T18:38:51.271Z,95475.52
2023-05-10T18:41:19.298Z,95479.70
2023-05-10T18:43:47.682Z,95482.29
2023-05-10T18:46:16.024Z,95488.64
2023-05-10T18:48:44.310Z,95491.58
2023-05-10T18:51:12.891Z,95495.62
2023-05-10T18:53:41.146Z,95498.25
2023-05-10T18:56:11.778Z,95499.48
2023-05-10T18:58:40.494Z,95504.27
2023-05-10T19:01:09.107Z,95505.02
2023-05-10T19:03:37.239Z,95504.29
2023-05-10T19:06:05.484Z,95505.64
2023-05-10T19:08:33.951Z,95510.29
2023-05-10T19:11:02.111Z,95509.36
2023-05-10T19:13:30.552Z,95515.04
2023-05-10T19:16:06.666Z,95518.17
2023-05-10T19:18:35.239Z,95528.42
2023-05-10T19:21:05.841Z,95529.88
2023-05-10T19:23:34.980Z,95527.21
2023-05-10T19:26:03.167Z,95527.89
2023-05-10T19:28:31.976Z,95528.13
2023-05-10T19:31:00.407Z,95534.15
2023-05-10T19:33:29.397Z,95536.52
2023-05-10T19:35:57.746Z,95534.59
2023-05-10T19:38:26.182Z,95532.80
2023-05-10T19:40:58.396Z,95534.77
2023-05-10T19:43:34.260Z,95531.49
2023-05-10T19:46:03.650Z,95534.75
2023-05-10T19:48:32.044Z,95533.58
2023-05-10T19:51:07.568Z,95531.66
2023-05-10T19:53:37.956Z,95537.01
2023-05-10T19:56:07.179Z,95534.03
2023-05-10T19:58:35.440Z,95536.70
2023-05-10T20:01:05.870Z,95535.83
2023-05-10T20:03:35.126Z,95542.24
2023-05-10T20:06:04.304Z,95540.42
2023-05-10T20:08:32.453Z,95541.29
2023-05-10T20:11:02.793Z,95540.23
2023-05-10T20:13:30.962Z,95543.05
2023-05-10T20:15:59.980Z,95539.96
2023-05-10T20:18:28.297Z,95540.91
2023-05-10T20:20:59.220Z,95545.43
2023-05-10T20:23:27.418Z,95547.57
2023-05-10T20:25:56.060Z,95546.30
2023-05-10T20:28:26.377Z,95548.48
2023-05-10T20:30:55.884Z,95547.61
2023-05-10T20:33:25.820Z,95549.20
2023-05-10T20:35:54.098Z,95548.69
2023-05-10T20:38:22.860Z,95550.14
2023-05-10T20:40:51.005Z,95554.09
2023-05-10T20:43:20.816Z,95559.45
2023-05-10T20:45:49.081Z,95558.42
2023-05-10T20:48:17.776Z,95558.45
2023-05-10T20:50:45.870Z,95560.42
2023-05-10T20:53:14.833Z,95558.20
2023-05-10T20:55:42.854Z,95557.61
2023-05-10T20:58:10.913Z,95556.17
2023-05-10T21:00:39.102Z,95556.33
2023-05-10T21:03:07.314Z,95553.25
2023-05-10T21:05:36.187Z,95555.11
2023-05-10T21:08:04.269Z,95551.50
2023-05-10T21:10:32.337Z,95555.52
2023-05-10T21:13:00.536Z,95552.44
2023-05-10T21:15:28.948Z,95555.30
2023-05-10T21:17:57.599Z,95555.64
2023-05-10T21:20:26.037Z,95553.61
2023-05-10T21:22:54.129Z,95551.79
2023-05-10T21:25:23.640Z,95551.09
2023-05-10T21:27:51.848Z,95556.85
2023-05-10T21:30:20.660Z,95554.37
2023-05-10T21:32:48.712Z,95552.98
2023-05-10T21:35:16.846Z,95553.18
2023-05-10T21:37:44.874Z,95552.95
2023-05-10T21:40:13.336Z,95551.59
2023-05-10T21:42:41.332Z,95556.33
2023-05-10T21:45:10.217Z,95558.83
2023-05-10T21:47:38.251Z,95556.64
2023-05-10T21:50:07.531Z,95557.36
2023-05-10T21:52:36.298Z,95555.21
2023-05-10T21:55:05.315Z,95553.80
2023-05-10T21:57:33.434Z,95555.51
2023-05-10T22:00:01.524Z,95555.58
2023-05-10T22:02:32.662Z,95560.95
2023-05-10T22:05:02.205Z,95566.23
2023-05-10T22:07:33.634Z,95565.80
2023-05-10T22:10:01.834Z,95566.50
2023-05-10T22:12:29.923Z,95563.95
2023-05-10T22:15:09.320Z,95565.67
2023-05-10T22:17:40.048Z,95565.64
2023-05-10T22:20:09.324Z,95567.84
2023-05-10T22:22:37.705Z,95566.34
2023-05-10T22:25:07.479Z,95564.73
2023-05-10T22:27:35.640Z,95563.74
2023-05-10T22:30:04.462Z,95563.80
2023-05-10T22:32:33.354Z,95562.83
2023-05-10T22:35:01.610Z,95564.94
2023-05-10T22:37:29.793Z,95567.22
2023-05-10T22:39:57.894Z,95568.95
2023-05-10T22:42:26.010Z,95571.61
2023-05-10T22:44:54.079Z,95570.89
2023-05-10T22:47:22.228Z,95572.73
2023-05-10T22:49:50.623Z,95576.45
2023-05-10T22:52:18.748Z,95580.27
2023-05-10T22:54:46.972Z,95578.52
2023-05-10T22:57:16.399Z,95576.48
2023-05-10T22:59:44.566Z,95578.49
2023-05-10T23:02:14.334Z,95580.20
2023-05-10T23:04:42.531Z,95580.86
2023-05-10T23:07:11.685Z,95586.27
2023-05-10T23:09:39.838Z,95585.98
2023-05-10T23:12:07.846Z,95585.91
2023-05-10T23:14:35.908Z,95592.02
2023-05-10T23:17:03.912Z,95591.11
2023-05-10T23:19:32.245Z,95587.42
2023-05-10T23:22:00.332Z,95583.45
2023-05-10T23:24:29.167Z,95581.73
2023-05-10T23:26:57.330Z,95581.02
2023-05-10T23:29:26.398Z,95583.30
2023-05-10T23:31:54.591Z,95588.16
2023-05-10T23:34:22.670Z,95583.36
2023-05-10T23:36:50.611Z,95581.93
2023-05-10T23:39:19.125Z,95585.91
2023-05-10T23:41:47.219Z,95583.48
2023-05-10T23:44:15.634Z,95588.06
2023-05-10T23:46:43.686Z,95589.83
2023-05-10T23:49:12.004Z,95588.56
2023-05-10T23:51:40.599Z,95590.17
2023-05-10T23:54:08.912Z,95589.11
2023-05-10T23:56:37.719Z,95585.17
2023-05-10T23:59:08.449Z,95586.75
